createdAt,value
2023-05-01T00:01:12.199Z,101416.66
2023-05-01T00:03:40.690Z,101418.30
2023-05-01T00:06:09.187Z,101422.27
2023-05-01T00:08:37.455Z,101422.92
2023-05-01T00:11:05.873Z,101423.77
2023-05-01T00:13:34.090Z,101426.89
2023-05-01T00:16:02.295Z,101424.66
2023-05-01T00:18:30.739Z,101428.65
2023-05-01T00:20:58.755Z,101428.20
2023-05-01T00:23:26.864Z,101427.48
2023-05-01T00:25:54.885Z,101427.63
2023-05-01T00:28:22.904Z,101427.19
2023-05-01T00:30:51.435Z,101429.58
2023-05-01T00:33:19.559Z,101430.61
2023-05-01T00:35:47.678Z,101433.24
2023-05-01T00:38:15.619Z,101437.69
2023-05-01T00:40:44.361Z,101435.02
2023-05-01T00:43:12.338Z,101436.73
2023-05-01T00:45:40.765Z,101441.72
2023-05-01T00:48:09.655Z,101438.91
2023-05-01T00:50:37.595Z,101438.36
2023-05-01T00:53:05.632Z,101441.45
2023-05-01T00:55:34.039Z,101440.67
2023-05-01T00:58:02.455Z,101442.23
2023-05-01T01:00:31.183Z,101448.75
2023-05-01T01:02:59.836Z,101449.98
2023-05-01T01:05:28.419Z,101450.35
2023-05-01T01:08:29.175Z,101449.52
2023-05-01T01:11:04.096Z,101452.80
2023-05-01T01:13:35.226Z,101450.29
2023-05-01T01:16:07.462Z,101450.73
2023-05-01T01:18:50.652Z,101450.88
2023-05-01T01:21:28.786Z,101450.66
2023-05-01T01:24:44.877Z,101453.49
2023-05-01T01:27:55.043Z,101454.86
2023-05-01T01:30:35.940Z,101457.79
2023-05-01T01:33:41.861Z,101459.55
2023-05-01T01:36:12.144Z,101459.49
2023-05-01T01:38:46.128Z,101462.52
2023-05-01T01:41:18.262Z,101464.11
2023-05-01T01:43:48.740Z,101461.34
2023-05-01T01:46:17.940Z,101462.91
2023-05-01T01:48:46.940Z,101466.35
2023-05-01T01:51:16.824Z,101467.39
2023-05-01T01:53:48.467Z,101464.48
2023-05-01T01:56:16.519Z,101465.13
2023-05-01T01:58:44.533Z,101465.79
2023-05-01T02:01:13.870Z,101462.73
2023-05-01T02:03:42.175Z,101463.44
2023-05-01T02:06:10.167Z,101467.59
2023-05-01T02:08:38.718Z,101462.96
2023-05-01T02:11:06.740Z,101466.05
2023-05-01T02:13:35.164Z,101468.68
2023-05-01T02:16:03.368Z,101468.31
2023-05-01T02:18:31.805Z,101468.48
2023-05-01T02:21:00.226Z,101466.70
2023-05-01T02:23:28.263Z,101469.63
2023-05-01T02:25:56.970Z,101465.48
2023-05-01T02:28:25.292Z,101471.56
2023-05-01T02:30:53.309Z,101471.88
2023-05-01T02:33:21.831Z,101479.30
2023-05-01T02:35:50.051Z,101480.41
2023-05-01T02:38:18.774Z,101483.71
2023-05-01T02:40:49.160Z,101482.69
2023-05-01T02:43:19.123Z,101486.02
2023-05-01T02:45:47.815Z,101484.58
2023-05-01T02:48:19.147Z,101483.59
2023-05-01T02:50:47.702Z,101486.83
2023-05-01T02:53:16.026Z,101488.57
2023-05-01T02:55:52.972Z,101488.22
2023-05-01T02:58:20.999Z,101491.23
2023-05-01T03:00:50.027Z,101489.47
2023-05-01T03:03:19.109Z,101489.27
2023-05-01T03:05:48.129Z,101491.67
2023-05-01T03:08:16.185Z,101494.05
2023-05-01T03:10:44.444Z,101495.42
2023-05-01T03:13:12.416Z,101496.77
2023-05-01T03:15:40.538Z,101496.52
2023-05-01T03:18:08.664Z,101502.06
2023-05-01T03:20:36.895Z,101503.61
2023-05-01T03:23:06.501Z,101510.73
2023-05-01T03:25:34.620Z,101507.61
2023-05-01T03:28:02.950Z,101510.52
2023-05-01T03:30:33.873Z,101504.48
2023-05-01T03:33:02.330Z,101514.71
2023-05-01T03:35:31.812Z,101512.66
2023-05-01T03:38:00.538Z,101517.78
2023-05-01T03:40:47.223Z,101522.27
2023-05-01T03:43:33.512Z,101523.90
2023-05-01T03:46:07.478Z,101530.88
2023-05-01T03:48:36.168Z,101536.41
2023-05-01T03:51:04.758Z,101534.56
2023-05-01T03:53:33.314Z,101538.22
2023-05-01T03:56:04.647Z,101541.38
2023-05-01T03:58:32.765Z,101539.05
2023-05-01T04:01:01.148Z,101543.26
2023-05-01T04:03:29.419Z,101537.90
2023-05-01T04:05:58.155Z,101538.33
2023-05-01T04:08:26.249Z,101543.66
2023-05-01T04:10:54.171Z,101545.37
2023-05-01T04:13:22.290Z,101543.47
2023-05-01T04:15:50.552Z,101545.11
2023-05-01T04:18:18.698Z,101543.00
2023-05-01T04:20:46.750Z,101544.85
2023-05-01T04:23:14.867Z,101544.63
2023-05-01T04:25:43.087Z,101545.41
2023-05-01T04:28:13.613Z,101546.91
2023-05-01T04:30:41.641Z,101550.63
2023-05-01T04:33:12.670Z,101550.67
2023-05-01T04:35:41.794Z,101552.05
2023-05-01T04:38:10.880Z,101551.70
2023-05-01T04:40:39.033Z,101548.44
2023-05-01T04:43:07.355Z,101550.59
2023-05-01T04:45:36.165Z,101549.45
2023-05-01T04:48:04.594Z,101550.21
2023-05-01T04:50:33.225Z,101547.20
2023-05-01T04:53:01.636Z,101554.19
2023-05-01T04:55:31.087Z,101552.55
2023-05-01T04:58:13.141Z,101554.96
2023-05-01T05:00:41.645Z,101558.67
2023-05-01T05:03:11.554Z,101557.23
2023-05-01T05:05:39.695Z,101557.67
2023-05-01T05:08:09.326Z,101555.86
2023-05-01T05:10:41.660Z,101559.95
2023-05-01T05:13:28.251Z,101560.23
2023-05-01T05:16:01.800Z,101561.64
2023-05-01T05:18:30.095Z,101567.29
2023-05-01T05:20:58.231Z,101567.58
2023-05-01T05:23:26.237Z,101569.60
2023-05-01T05:25:54.259Z,101584.75
2023-05-01T05:28:22.517Z,101581.70
2023-05-01T05:30:51.308Z,101586.89
2023-05-01T05:33:20.570Z,101594.55
2023-05-01T05:35:49.345Z,101596.77
2023-05-01T05:38:17.570Z,101600.42
2023-05-01T05:40:46.892Z,101596.27
2023-05-01T05:43:15.011Z,101599.27
2023-05-01T05:45:43.249Z,101601.91
2023-05-01T05:48:11.607Z,101603.22
2023-05-01T05:50:41.983Z,101603.66
2023-05-01T05:53:10.503Z,101612.04
2023-05-01T05:55:38.838Z,101616.72
2023-05-01T05:58:07.552Z,101617.42
2023-05-01T06:00:35.971Z,101619.76
2023-05-01T06:03:05.903Z,101622.96
2023-05-01T06:05:34.588Z,101629.92
2023-05-01T06:08:02.733Z,101627.27
2023-05-01T06:10:31.264Z,101624.70
2023-05-01T06:13:01.445Z,101624.28
2023-05-01T06:15:44.003Z,101632.52
2023-05-01T06:18:12.654Z,101637.63
2023-05-01T06:20:41.027Z,101640.44
2023-05-01T06:23:10.120Z,101641.71
2023-05-01T06:25:42.971Z,101645.80
2023-05-01T06:28:11.280Z,101645.73
2023-05-01T06:30:39.315Z,101649.08
2023-05-01T06:33:07.582Z,101653.96
2023-05-01T06:35:36.438Z,101659.55
2023-05-01T06:38:04.660Z,101661.02
2023-05-01T06:40:34.984Z,101659.05
2023-05-01T06:43:03.441Z,101665.82
2023-05-01T06:45:32.229Z,101666.71
2023-05-01T06:48:00.757Z,101668.17
2023-05-01T06:50:29.780Z,101673.36
2023-05-01T06:53:00.301Z,101678.79
2023-05-01T06:55:31.812Z,101680.59
2023-05-01T06:58:02.665Z,101682.54
2023-05-01T07:00:35.121Z,101684.91
2023-05-01T07:03:04.282Z,101690.13
2023-05-01T07:05:32.445Z,101693.67
2023-05-01T07:08:02.042Z,101701.91
2023-05-01T07:10:30.889Z,101705.63
2023-05-01T07:12:59.965Z,101703.81
2023-05-01T07:15:28.033Z,101710.95
2023-05-01T07:17:56.609Z,101706.08
2023-05-01T07:20:24.779Z,101708.90
2023-05-01T07:22:52.870Z,101711.51
2023-05-01T07:25:20.915Z,101712.66
2023-05-01T07:27:48.936Z,101717.01
2023-05-01T07:30:16.955Z,101716.91
2023-05-01T07:32:45.350Z,101719.62
2023-05-01T07:35:13.723Z,101724.61
2023-05-01T07:37:41.713Z,101727.77
2023-05-01T07:40:10.335Z,101728.65
2023-05-01T07:42:38.356Z,101731.27
2023-05-01T07:45:07.558Z,101734.11
2023-05-01T07:47:35.705Z,101736.80
2023-05-01T07:50:04.622Z,101738.71
2023-05-01T07:52:32.639Z,101743.95
2023-05-01T07:55:00.763Z,101743.00
2023-05-01T07:57:28.777Z,101744.77
2023-05-01T07:59:57.189Z,101745.21
2023-05-01T08:02:25.685Z,101747.19
2023-05-01T08:04:53.809Z,101749.83
2023-05-01T08:07:22.067Z,101751.84
2023-05-01T08:09:50.082Z,101753.25
2023-05-01T08:12:18.098Z,101754.20
2023-05-01T08:14:46.124Z,101760.34
2023-05-01T08:17:14.449Z,101760.98
2023-05-01T08:19:42.364Z,101761.32
2023-05-01T08:22:10.592Z,101758.85
2023-05-01T08:24:39.204Z,101758.42
2023-05-01T08:27:07.222Z,101758.96
2023-05-01T08:29:35.647Z,101758.61
2023-05-01T08:32:03.976Z,101758.49
2023-05-01T08:34:31.887Z,101765.13
2023-05-01T08:37:00.009Z,101766.05
2023-05-01T08:39:28.027Z,101765.94
2023-05-01T08:41:56.045Z,101765.78
2023-05-01T08:44:25.678Z,101767.19
2023-05-01T08:47:15.263Z,101764.98
2023-05-01T08:49:44.082Z,101769.70
2023-05-01T08:52:13.313Z,101771.52
2023-05-01T08:54:45.045Z,101767.48
2023-05-01T08:57:13.157Z,101766.11
2023-05-01T08:59:41.288Z,101762.35
2023-05-01T09:02:09.879Z,101761.55
2023-05-01T09:04:39.341Z,101760.51
2023-05-01T09:07:08.497Z,101761.58
2023-05-01T09:09:37.356Z,101762.58
2023-05-01T09:12:23.953Z,101763.48
2023-05-01T09:14:56.183Z,101768.84
2023-05-01T09:17:24.432Z,101768.40
2023-05-01T09:19:52.327Z,101766.47
2023-05-01T09:22:20.476Z,101770.62
2023-05-01T09:24:48.490Z,101767.63
2023-05-01T09:27:16.570Z,101764.00
2023-05-01T09:29:46.212Z,101772.48
2023-05-01T09:32:26.266Z,101776.17
2023-05-01T09:34:55.295Z,101774.80
2023-05-01T09:37:33.658Z,101773.92
2023-05-01T09:40:08.919Z,101779.89
2023-05-01T09:42:38.677Z,101783.19
2023-05-01T09:45:16.981Z,101780.16
2023-05-01T09:47:47.882Z,101768.05
2023-05-01T09:50:35.598Z,101779.31
2023-05-01T09:53:05.257Z,101782.41
2023-05-01T09:55:33.741Z,101781.08
2023-05-01T09:58:02.379Z,101784.01
2023-05-01T10:00:30.589Z,101784.95
2023-05-01T10:02:58.710Z,101784.78
2023-05-01T10:05:27.180Z,101786.66
2023-05-01T10:07:58.767Z,101791.73
2023-05-01T10:10:26.886Z,101791.75
2023-05-01T10:12:55.458Z,101790.05
2023-05-01T10:15:27.003Z,101792.74
2023-05-01T10:17:55.644Z,101797.13
2023-05-01T10:20:24.183Z,101796.91
2023-05-01T10:22:52.102Z,101795.84
2023-05-01T10:25:20.120Z,101799.86
2023-05-01T10:27:48.643Z,101799.54
2023-05-01T10:30:16.765Z,101802.11
2023-05-01T10:32:44.942Z,101799.14
2023-05-01T10:35:19.815Z,101802.00
2023-05-01T10:37:59.279Z,101805.59
2023-05-01T10:40:39.675Z,101804.30
2023-05-01T10:43:17.201Z,101800.64
2023-05-01T10:45:45.824Z,101804.61
2023-05-01T10:48:40.332Z,101807.98
2023-05-01T10:51:14.467Z,101813.23
2023-05-01T10:53:42.796Z,101816.88
2023-05-01T10:56:26.663Z,101817.67
2023-05-01T10:58:58.397Z,101816.02
2023-05-01T11:01:36.986Z,101813.95
2023-05-01T11:04:28.458Z,101812.19
2023-05-01T11:07:05.609Z,101818.16
2023-05-01T11:09:40.274Z,101819.71
2023-05-01T11:12:09.473Z,101817.16
2023-05-01T11:14:52.557Z,101821.39
2023-05-01T11:17:42.335Z,101825.86
2023-05-01T11:20:13.865Z,101825.36
2023-05-01T11:22:46.521Z,101823.13
2023-05-01T11:25:24.667Z,101823.33
2023-05-01T11:27:57.204Z,101824.98
2023-05-01T11:30:25.326Z,101822.20
2023-05-01T11:32:53.407Z,101820.30
2023-05-01T11:35:22.773Z,101822.70
2023-05-01T11:37:56.111Z,101827.00
2023-05-01T11:40:28.237Z,101831.23
2023-05-01T11:43:08.802Z,101834.93
2023-05-01T11:45:37.547Z,101835.59
2023-05-01T11:48:14.532Z,101835.12
2023-05-01T11:50:42.895Z,101834.47
2023-05-01T11:53:12.123Z,101832.72
2023-05-01T11:55:40.516Z,101834.30
2023-05-01T11:58:08.862Z,101833.02
2023-05-01T12:00:38.319Z,101831.71
2023-05-01T12:03:12.030Z,101827.98
2023-05-01T12:05:44.167Z,101826.33
2023-05-01T12:08:19.803Z,101825.96
2023-05-01T12:10:58.363Z,101825.98
2023-05-01T12:13:27.175Z,101823.81
2023-05-01T12:15:55.816Z,101829.68
2023-05-01T12:18:24.111Z,101830.66
2023-05-01T12:20:52.961Z,101829.55
2023-05-01T12:23:32.144Z,101829.17
2023-05-01T12:26:00.431Z,101830.94
2023-05-01T12:28:28.458Z,101827.58
2023-05-01T12:31:04.112Z,101827.35
2023-05-01T12:33:33.623Z,101833.11
2023-05-01T12:36:13.982Z,101830.02
2023-05-01T12:38:42.003Z,101830.19
2023-05-01T12:41:12.227Z,101833.98
2023-05-01T12:43:41.870Z,101837.82
2023-05-01T12:46:14.431Z,101836.45
2023-05-01T12:48:42.907Z,101836.30
2023-05-01T12:51:11.429Z,101838.20
2023-05-01T12:53:39.349Z,101841.26
2023-05-01T12:56:07.825Z,101844.41
2023-05-01T12:58:37.240Z,101841.60
2023-05-01T13:01:05.524Z,101838.02
2023-05-01T13:03:33.947Z,101835.86
2023-05-01T13:06:03.653Z,101834.85
2023-05-01T13:08:37.362Z,101828.36
2023-05-01T13:11:13.274Z,101829.65
2023-05-01T13:13:41.684Z,101828.13
2023-05-01T13:16:10.567Z,101831.48
2023-05-01T13:18:51.858Z,101835.96
2023-05-01T13:21:23.288Z,101839.64
2023-05-01T13:23:58.642Z,101832.16
2023-05-01T13:26:28.256Z,101835.77
2023-05-01T13:28:57.373Z,101835.35
2023-05-01T13:31:25.854Z,101831.65
2023-05-01T13:33:54.730Z,101829.98
2023-05-01T13:36:26.316Z,101827.86
2023-05-01T13:38:56.493Z,101831.58
2023-05-01T13:41:26.230Z,101829.16
2023-05-01T13:43:55.635Z,101829.73
2023-05-01T13:46:24.877Z,101833.73
2023-05-01T13:48:53.079Z,101834.06
2023-05-01T13:51:25.308Z,101835.00
2023-05-01T13:53:54.128Z,101834.41
2023-05-01T13:56:22.482Z,101834.66
2023-05-01T13:58:50.883Z,101834.90
2023-05-01T14:01:20.910Z,101831.98
2023-05-01T14:03:49.689Z,101834.23
2023-05-01T14:06:21.118Z,101841.66
2023-05-01T14:08:49.372Z,101842.34
2023-05-01T14:11:18.351Z,101842.34
2023-05-01T14:13:47.326Z,101842.83
2023-05-01T14:16:25.941Z,101845.92
2023-05-01T14:18:57.466Z,101848.80
2023-05-01T14:21:28.228Z,101852.45
2023-05-01T14:23:57.209Z,101855.50
2023-05-01T14:26:25.379Z,101854.71
2023-05-01T14:28:53.401Z,101853.50
2023-05-01T14:31:21.488Z,101851.84
2023-05-01T14:33:54.354Z,101852.20
2023-05-01T14:36:22.376Z,101855.05
2023-05-01T14:38:51.197Z,101853.94
2023-05-01T14:41:19.870Z,101852.45
2023-05-01T14:43:48.263Z,101855.28
2023-05-01T14:46:16.320Z,101853.75
2023-05-01T14:48:44.485Z,101855.06
2023-05-01T14:51:12.847Z,101855.98
2023-05-01T14:53:43.951Z,101863.31
2023-05-01T14:56:12.263Z,101867.51
2023-05-01T14:58:40.180Z,101866.40
2023-05-01T15:01:08.125Z,101868.76
2023-05-01T15:03:40.921Z,101869.23
2023-05-01T15:06:09.599Z,101866.77
2023-05-01T15:08:38.389Z,101863.80
2023-05-01T15:11:06.417Z,101865.88
2023-05-01T15:13:34.520Z,101864.81
2023-05-01T15:16:03.057Z,101867.35
2023-05-01T15:18:31.564Z,101862.40
2023-05-01T15:20:59.385Z,101863.98
2023-05-01T15:23:27.908Z,101865.21
2023-05-01T15:25:55.929Z,101865.85
2023-05-01T15:28:25.327Z,101873.08
2023-05-01T15:30:53.326Z,101874.11
2023-05-01T15:33:21.420Z,101872.45
2023-05-01T15:35:51.217Z,101873.11
2023-05-01T15:38:21.155Z,101872.54
2023-05-01T15:40:50.260Z,101869.73
2023-05-01T15:43:18.689Z,101871.00
2023-05-01T15:45:46.837Z,101871.09
2023-05-01T15:48:14.968Z,101870.98
2023-05-01T15:50:43.058Z,101872.54
2023-05-01T15:53:11.069Z,101874.63
2023-05-01T15:55:39.082Z,101876.31
2023-05-01T15:58:07.006Z,101875.94
2023-05-01T16:00:38.235Z,101878.92
2023-05-01T16:03:07.992Z,101884.70
2023-05-01T16:05:36.877Z,101879.91
2023-05-01T16:08:05.204Z,101882.56
2023-05-01T16:10:37.212Z,101889.92
2023-05-01T16:13:08.568Z,101891.17
2023-05-01T16:15:36.882Z,101893.29
2023-05-01T16:18:05.201Z,101900.42
2023-05-01T16:20:35.429Z,101902.77
2023-05-01T16:23:03.367Z,101903.12
2023-05-01T16:25:31.382Z,101905.57
2023-05-01T16:27:59.688Z,101901.69
2023-05-01T16:30:27.831Z,101905.03
2023-05-01T16:32:56.087Z,101909.90
2023-05-01T16:35:27.201Z,101911.95
2023-05-01T16:37:55.579Z,101914.23
2023-05-01T16:40:23.599Z,101913.36
2023-05-01T16:42:52.520Z,101914.41
2023-05-01T16:45:21.137Z,101914.79
2023-05-01T16:47:49.257Z,101915.45
2023-05-01T16:50:17.481Z,101919.20
2023-05-01T16:52:45.505Z,101922.50
2023-05-01T16:55:14.024Z,101923.17
2023-05-01T16:57:44.222Z,101924.46
2023-05-01T17:00:14.224Z,101924.24
2023-05-01T17:02:42.220Z,101929.54
2023-05-01T17:05:10.520Z,101931.30
2023-05-01T17:07:38.534Z,101931.31
2023-05-01T17:10:07.561Z,101936.19
2023-05-01T17:12:35.582Z,101938.02
2023-05-01T17:15:04.851Z,101940.96
2023-05-01T17:17:32.966Z,101942.11
2023-05-01T17:20:01.437Z,101943.02
2023-05-01T17:22:30.065Z,101950.30
2023-05-01T17:25:02.342Z,101953.11
2023-05-01T17:27:30.944Z,101951.45
2023-05-01T17:29:59.049Z,101955.44
2023-05-01T17:32:36.311Z,101958.95
2023-05-01T17:35:05.905Z,101966.24
2023-05-01T17:37:34.141Z,101968.80
2023-05-01T17:40:02.560Z,101975.61
2023-05-01T17:42:30.787Z,101976.10
2023-05-01T17:44:58.810Z,101978.54
2023-05-01T17:47:26.951Z,101983.65
2023-05-01T17:49:55.304Z,101982.69
2023-05-01T17:52:23.565Z,101987.61
2023-05-01T17:54:51.787Z,101991.77
2023-05-01T17:57:19.797Z,101998.23
2023-05-01T17:59:47.822Z,102002.02
2023-05-01T18:02:15.879Z,102001.72
2023-05-01T18:04:44.078Z,102006.43
2023-05-01T18:07:12.180Z,102010.89
2023-05-01T18:09:40.207Z,102014.05
2023-05-01T18:12:08.217Z,102018.31
2023-05-01T18:14:37.141Z,102018.41
2023-05-01T18:17:05.231Z,102018.41
2023-05-01T18:19:33.383Z,102022.34
2023-05-01T18:22:01.602Z,102021.61
2023-05-01T18:24:29.719Z,102030.58
2023-05-01T18:26:59.749Z,102027.44
2023-05-01T18:29:27.774Z,102032.23
2023-05-01T18:31:56.085Z,102032.42
2023-05-01T18:34:25.188Z,102040.76
2023-05-01T18:36:54.745Z,102042.85
2023-05-01T18:39:22.862Z,102046.42
2023-05-01T18:41:51.380Z,102045.55
2023-05-01T18:44:19.402Z,102047.76
2023-05-01T18:46:47.467Z,102048.02
2023-05-01T18:49:15.652Z,102051.17
2023-05-01T18:51:43.660Z,102054.44
2023-05-01T18:54:12.587Z,102056.05
2023-05-01T18:56:40.805Z,102056.91
2023-05-01T18:59:08.824Z,102057.80
2023-05-01T19:01:37.278Z,102060.27
2023-05-01T19:04:06.764Z,102064.91
2023-05-01T19:06:35.153Z,102071.33
2023-05-01T19:09:03.518Z,102078.27
2023-05-01T19:11:32.064Z,102074.27
2023-05-01T19:14:00.135Z,102075.89
2023-05-01T19:16:28.194Z,102082.36
2023-05-01T19:18:56.191Z,102086.55
2023-05-01T19:21:24.406Z,102086.79
2023-05-01T19:23:52.422Z,102084.66
2023-05-01T19:26:21.045Z,102089.55
2023-05-01T19:28:48.968Z,102087.16
2023-05-01T19:31:19.090Z,102089.10
2023-05-01T19:33:48.142Z,102093.06
2023-05-01T19:36:16.140Z,102095.74
2023-05-01T19:38:45.575Z,102098.55
2023-05-01T19:41:14.291Z,102095.66
2023-05-01T19:43:42.302Z,102101.38
2023-05-01T19:46:10.379Z,102101.42
2023-05-01T19:48:38.442Z,102103.98
2023-05-01T19:51:06.590Z,102104.55
2023-05-01T19:53:34.718Z,102107.91
2023-05-01T19:56:02.801Z,102108.56
2023-05-01T19:58:30.924Z,102105.70
2023-05-01T20:01:02.394Z,102107.91
2023-05-01T20:03:30.414Z,102103.90
2023-05-01T20:05:58.574Z,102106.73
2023-05-01T20:08:27.214Z,102107.35
2023-05-01T20:10:56.938Z,102111.62
2023-05-01T20:13:24.962Z,102109.91
2023-05-01T20:15:52.983Z,102108.35
2023-05-01T20:18:21.205Z,102109.02
2023-05-01T20:20:49.222Z,102110.29
2023-05-01T20:23:18.019Z,102110.36
2023-05-01T20:25:48.675Z,102109.70
2023-05-01T20:28:16.698Z,102111.10
2023-05-01T20:30:45.761Z,102111.48
2023-05-01T20:33:14.499Z,102114.20
2023-05-01T20:35:42.762Z,102115.70
2023-05-01T20:38:10.876Z,102117.69
2023-05-01T20:40:42.415Z,102120.77
2023-05-01T20:43:11.469Z,102125.05
2023-05-01T20:45:39.857Z,102127.28
2023-05-01T20:48:08.182Z,102127.80
2023-05-01T20:50:36.491Z,102129.65
2023-05-01T20:53:04.512Z,102129.88
2023-05-01T20:55:32.532Z,102131.62
2023-05-01T20:58:00.564Z,102136.52
2023-05-01T21:00:28.572Z,102135.34
2023-05-01T21:05:26.217Z,102140.19
2023-05-01T21:07:54.350Z,102139.33
2023-05-01T21:10:22.553Z,102137.29
2023-05-01T21:12:51.232Z,102136.39
2023-05-01T21:15:19.398Z,102134.59
2023-05-01T21:17:47.555Z,102136.94
2023-05-01T21:20:19.176Z,102134.54
2023-05-01T21:22:48.390Z,102143.45
2023-05-01T21:25:16.553Z,102144.67
2023-05-01T21:27:44.513Z,102146.71
2023-05-01T21:30:18.252Z,102147.40
2023-05-01T21:32:46.323Z,102151.27
2023-05-01T21:35:17.355Z,102152.52
2023-05-01T21:37:46.023Z,102152.86
2023-05-01T21:40:14.731Z,102157.00
2023-05-01T21:42:43.165Z,102155.77
2023-05-01T21:45:13.068Z,102157.31
2023-05-01T21:47:42.726Z,102151.63
2023-05-01T21:50:15.373Z,102157.38
2023-05-01T21:52:43.939Z,102158.30
2023-05-01T21:55:19.638Z,102157.70
2023-05-01T21:57:47.838Z,102158.24
2023-05-01T22:00:15.959Z,102158.19
2023-05-01T22:02:45.239Z,102159.74
2023-05-01T22:05:14.009Z,102160.95
2023-05-01T22:07:42.941Z,102162.35
2023-05-01T22:10:15.850Z,102159.14
2023-05-01T22:12:44.817Z,102157.29
2023-05-01T22:15:14.015Z,102160.23
2023-05-01T22:17:42.067Z,102165.44
2023-05-01T22:20:10.277Z,102164.39
2023-05-01T22:22:39.378Z,102164.02
2023-05-01T22:25:08.213Z,102166.41
2023-05-01T22:27:36.521Z,102163.20
2023-05-01T22:30:05.139Z,102163.41
2023-05-01T22:32:33.197Z,102165.95
2023-05-01T22:35:01.402Z,102167.17
2023-05-01T22:37:29.746Z,102170.58
2023-05-01T22:39:58.050Z,102170.14
2023-05-01T22:42:26.345Z,102165.65
2023-05-01T22:44:54.866Z,102169.64
2023-05-01T22:47:22.923Z,102165.58
2023-05-01T22:49:51.012Z,102168.14
2023-05-01T22:52:19.327Z,102163.77
2023-05-01T22:54:47.628Z,102166.63
2023-05-01T22:57:16.083Z,102162.39
2023-05-01T22:59:45.834Z,102162.80
2023-05-01T23:02:16.465Z,102157.95
2023-05-01T23:04:44.548Z,102156.20
2023-05-01T23:07:15.574Z,102155.90
2023-05-01T23:09:43.786Z,102151.33
2023-05-01T23:12:15.256Z,102148.34
2023-05-01T23:14:43.243Z,102148.33
2023-05-01T23:17:11.160Z,102145.15
2023-05-01T23:19:39.179Z,102145.70
2023-05-01T23:22:08.755Z,102145.77
2023-05-01T23:24:52.976Z,102143.65
2023-05-01T23:27:22.694Z,102143.80
2023-05-01T23:29:57.050Z,102143.48
2023-05-01T23:32:30.237Z,102146.52
2023-05-01T23:35:03.033Z,102147.73
2023-05-01T23:37:31.043Z,102147.17
2023-05-01T23:40:00.139Z,102144.01
2023-05-01T23:42:28.491Z,102140.54
2023-05-01T23:44:56.706Z,102137.00
2023-05-01T23:47:24.749Z,102134.33
2023-05-01T23:49:52.745Z,102133.21
2023-05-01T23:52:21.271Z,102132.56
2023-05-01T23:54:49.385Z,102131.02
2023-05-01T23:57:17.405Z,102135.60
2023-05-01T23:59:45.428Z,102134.71
